createdAt,value
2023-04-13T00:00:37.026Z,69.05
2023-04-13T00:03:04.458Z,68.18
2023-04-13T00:05:34.257Z,69.30
2023-04-13T00:08:03.464Z,68.74
2023-04-13T00:10:37.100Z,68.67
2023-04-13T00:13:05.052Z,68.58
2023-04-13T00:15:32.138Z,67.50
2023-04-13T00:17:58.724Z,67.80
2023-04-13T00:20:25.230Z,68.10
2023-04-13T00:22:52.071Z,68.93
2023-04-13T00:25:18.562Z,69.65
2023-04-13T00:27:45.170Z,69.09
2023-04-13T00:30:16.256Z,70.78
2023-04-13T00:32:44.337Z,70.89
2023-04-13T00:35:12.775Z,70.54
2023-04-13T00:37:39.670Z,69.63
2023-04-13T00:40:08.486Z,68.93
2023-04-13T00:42:36.187Z,69.90
2023-04-13T00:45:03.027Z,69.38
2023-04-13T00:47:33.938Z,69.54
2023-04-13T00:50:01.649Z,69.50
2023-04-13T00:52:29.019Z,69.04
2023-04-13T00:54:57.835Z,67.97
2023-04-13T00:57:25.371Z,68.61
2023-04-13T00:59:52.778Z,66.59
2023-04-13T01:02:26.291Z,66.43
2023-04-13T01:04:54.873Z,66.60
2023-04-13T01:07:47.301Z,66.66
2023-04-13T01:10:19.491Z,66.51
2023-04-13T01:12:54.905Z,66.97
2023-04-13T01:15:23.178Z,66.39
2023-04-13T01:18:07.160Z,65.70
2023-04-13T01:20:37.053Z,66.37
2023-04-13T01:23:09.384Z,66.39
2023-04-13T01:25:57.737Z,66.21
2023-04-13T01:28:26.225Z,66.55
2023-04-13T01:30:53.942Z,67.89
2023-04-13T01:33:21.544Z,66.69
2023-04-13T01:35:50.154Z,67.65
2023-04-13T01:38:24.444Z,66.98
2023-04-13T01:40:51.762Z,66.55
2023-04-13T01:43:20.339Z,67.22
2023-04-13T01:45:53.584Z,66.86
2023-04-13T01:48:27.218Z,66.54
2023-04-13T01:51:03.878Z,67.25
2023-04-13T01:53:59.426Z,67.63
2023-04-13T01:56:26.675Z,67.06
2023-04-13T01:58:58.688Z,67.18
2023-04-13T02:01:25.871Z,66.01
2023-04-13T02:03:53.382Z,65.94
2023-04-13T02:06:20.748Z,65.37
2023-04-13T02:08:47.241Z,66.52
2023-04-13T02:11:13.893Z,65.75
2023-04-13T02:13:40.326Z,65.81
2023-04-13T02:16:07.316Z,65.83
2023-04-13T02:18:33.816Z,66.00
2023-04-13T02:21:07.815Z,66.22
2023-04-13T02:23:35.336Z,65.33
2023-04-13T02:26:02.759Z,66.23
2023-04-13T02:28:30.050Z,65.81
2023-04-13T02:30:57.272Z,66.06
2023-04-13T02:33:24.099Z,65.25
2023-04-13T02:35:50.934Z,65.04
2023-04-13T02:38:17.824Z,65.24
2023-04-13T02:40:44.319Z,64.65
2023-04-13T02:43:10.788Z,65.00
2023-04-13T02:45:39.196Z,64.21
2023-04-13T02:48:06.785Z,64.20
2023-04-13T02:50:33.198Z,64.58
2023-04-13T02:52:59.595Z,65.09
2023-04-13T02:55:26.543Z,64.95
2023-04-13T02:57:54.116Z,64.00
2023-04-13T03:00:21.094Z,64.78
2023-04-13T03:02:48.049Z,65.55
2023-04-13T03:05:14.681Z,64.67
2023-04-13T03:07:41.154Z,64.53
2023-04-13T03:10:08.862Z,65.05
2023-04-13T03:12:35.337Z,65.10
2023-04-13T03:15:04.918Z,64.93
2023-04-13T03:17:31.365Z,64.50
2023-04-13T03:19:58.419Z,64.73
2023-04-13T03:22:26.050Z,63.97
2023-04-13T03:24:52.534Z,64.94
2023-04-13T03:27:21.428Z,64.82
2023-04-13T03:29:47.836Z,64.93
2023-04-13T03:32:14.239Z,64.43
2023-04-13T03:34:44.067Z,64.21
2023-04-13T03:37:11.323Z,64.20
2023-04-13T03:39:39.259Z,65.01
2023-04-13T03:42:05.822Z,66.24
2023-04-13T03:44:32.973Z,66.22
2023-04-13T03:46:59.464Z,66.14
2023-04-13T03:49:25.935Z,66.32
2023-04-13T03:51:52.401Z,65.53
2023-04-13T03:54:18.796Z,65.33
2023-04-13T03:56:45.539Z,65.80
2023-04-13T03:59:11.953Z,64.88
2023-04-13T04:01:38.379Z,64.98
2023-04-13T04:04:05.013Z,64.94
2023-04-13T04:06:31.782Z,65.34
2023-04-13T04:08:58.288Z,65.21
2023-04-13T04:11:24.784Z,65.41
2023-04-13T04:13:51.159Z,63.89
2023-04-13T04:16:17.664Z,63.77
2023-04-13T04:18:44.285Z,63.32
2023-04-13T04:21:13.167Z,63.84
2023-04-13T04:23:39.993Z,63.43
2023-04-13T04:26:07.420Z,62.54
2023-04-13T04:28:39.927Z,61.66
2023-04-13T04:31:10.393Z,62.23
2023-04-13T04:33:38.643Z,62.18
2023-04-13T04:36:10.076Z,60.77
2023-04-13T04:38:36.634Z,60.35
2023-04-13T04:41:03.070Z,60.07
2023-04-13T04:43:30.331Z,59.77
2023-04-13T04:45:59.453Z,59.65
2023-04-13T04:48:27.045Z,59.53
2023-04-13T04:50:54.204Z,58.24
2023-04-13T04:53:21.193Z,58.91
2023-04-13T04:55:47.731Z,58.69
2023-04-13T04:58:14.246Z,58.43
2023-04-13T05:00:40.679Z,58.32
2023-04-13T05:03:08.268Z,58.37
2023-04-13T05:05:35.338Z,60.72
2023-04-13T05:08:01.976Z,57.71
2023-04-13T05:10:29.567Z,59.42
2023-04-13T05:12:56.750Z,57.52
2023-04-13T05:15:23.361Z,58.03
2023-04-13T05:17:50.913Z,56.99
2023-04-13T05:20:17.915Z,57.99
2023-04-13T05:22:44.342Z,56.21
2023-04-13T05:25:11.096Z,56.49
2023-04-13T05:27:38.069Z,56.79
2023-04-13T05:30:05.947Z,55.57
2023-04-13T05:32:35.679Z,54.87
2023-04-13T05:35:02.484Z,55.18
2023-04-13T05:37:28.939Z,57.61
2023-04-13T05:39:55.401Z,55.74
2023-04-13T05:42:21.834Z,55.32
2023-04-13T05:44:48.320Z,54.70
2023-04-13T05:47:14.762Z,55.71
2023-04-13T05:49:41.399Z,54.77
2023-04-13T05:52:08.161Z,54.05
2023-04-13T05:54:34.635Z,53.61
2023-04-13T05:57:01.029Z,53.29
2023-04-13T05:59:27.472Z,53.25
2023-04-13T06:01:54.103Z,52.85
2023-04-13T06:04:21.020Z,53.05
2023-04-13T06:06:47.926Z,53.44
2023-04-13T06:09:14.741Z,52.61
2023-04-13T06:11:41.711Z,52.71
2023-04-13T06:14:08.119Z,52.79
2023-04-13T06:16:34.622Z,54.47
2023-04-13T06:19:01.310Z,53.59
2023-04-13T06:21:30.094Z,53.34
2023-04-13T06:23:57.016Z,53.77
2023-04-13T06:26:23.486Z,50.63
2023-04-13T06:28:50.003Z,51.87
2023-04-13T06:31:16.644Z,54.31
2023-04-13T06:33:43.347Z,52.57
2023-04-13T06:36:10.403Z,51.40
2023-04-13T06:38:36.840Z,54.21
2023-04-13T06:41:04.570Z,50.45
2023-04-13T06:43:31.485Z,48.29
2023-04-13T06:46:02.260Z,46.84
2023-04-13T06:48:30.667Z,50.54
2023-04-13T06:50:57.478Z,51.46
2023-04-13T06:53:23.938Z,49.64
2023-04-13T06:55:50.948Z,50.29
2023-04-13T06:58:17.393Z,49.12
2023-04-13T07:00:43.969Z,51.42
2023-04-13T07:03:10.680Z,49.94
2023-04-13T07:05:38.782Z,52.80
2023-04-13T07:08:06.367Z,50.81
2023-04-13T07:10:32.841Z,50.33
2023-04-13T07:12:59.234Z,51.67
2023-04-13T07:15:25.691Z,50.23
2023-04-13T07:17:52.457Z,49.69
2023-04-13T07:20:19.140Z,53.28
2023-04-13T07:22:45.853Z,50.60
2023-04-13T07:25:12.387Z,52.82
2023-04-13T07:27:38.827Z,52.45
2023-04-13T07:30:06.574Z,51.17
2023-04-13T07:32:33.009Z,53.27
2023-04-13T07:35:01.950Z,51.94
2023-04-13T07:37:29.622Z,53.84
2023-04-13T07:39:56.078Z,50.11
2023-04-13T07:42:22.545Z,50.26
2023-04-13T07:44:48.965Z,50.86
2023-04-13T07:47:16.634Z,51.17
2023-04-13T07:49:43.075Z,51.89
2023-04-13T07:52:09.510Z,51.33
2023-04-13T07:54:36.377Z,48.13
2023-04-13T07:57:03.833Z,47.71
2023-04-13T07:59:30.464Z,47.79
2023-04-13T08:01:56.916Z,49.42
2023-04-13T08:04:23.669Z,47.70
2023-04-13T08:06:50.354Z,48.78
2023-04-13T08:09:16.743Z,48.36
2023-04-13T08:11:43.291Z,50.06
2023-04-13T08:14:11.632Z,50.20
2023-04-13T08:16:38.300Z,49.03
2023-04-13T08:19:04.831Z,48.47
2023-04-13T08:21:32.682Z,48.66
2023-04-13T08:23:59.172Z,49.46
2023-04-13T08:26:26.289Z,47.76
2023-04-13T08:28:55.884Z,47.97
2023-04-13T08:31:22.520Z,50.09
2023-04-13T08:33:49.008Z,49.74
2023-04-13T08:36:17.376Z,49.98
2023-04-13T08:38:43.865Z,47.09
2023-04-13T08:41:10.754Z,50.10
2023-04-13T08:43:38.325Z,49.25
2023-04-13T08:46:05.831Z,47.65
2023-04-13T08:48:42.689Z,48.09
2023-04-13T08:51:18.133Z,47.20
2023-04-13T08:53:44.586Z,45.49
2023-04-13T08:56:14.584Z,45.46
2023-04-13T08:58:42.907Z,47.86
2023-04-13T09:01:14.039Z,46.82
2023-04-13T09:03:50.956Z,47.25
2023-04-13T09:06:34.792Z,45.12
2023-04-13T09:09:05.935Z,44.78
2023-04-13T09:11:32.705Z,44.96
2023-04-13T09:13:59.337Z,45.31
2023-04-13T09:16:26.389Z,44.74
2023-04-13T09:18:58.072Z,47.06
2023-04-13T09:21:37.370Z,46.14
2023-04-13T09:24:05.951Z,43.33
2023-04-13T09:26:43.132Z,45.33
2023-04-13T09:29:20.491Z,45.60
2023-04-13T09:31:48.197Z,46.24
2023-04-13T09:34:25.842Z,45.68
2023-04-13T09:36:54.852Z,44.92
2023-04-13T09:39:27.544Z,45.38
2023-04-13T09:41:55.076Z,44.28
2023-04-13T09:44:24.620Z,44.09
2023-04-13T09:47:02.297Z,46.94
2023-04-13T09:49:43.085Z,44.71
2023-04-13T09:52:23.469Z,45.45
2023-04-13T09:54:51.963Z,45.04
2023-04-13T09:57:29.287Z,44.37
2023-04-13T09:59:57.822Z,43.72
2023-04-13T10:02:25.971Z,44.75
2023-04-13T10:04:52.995Z,43.59
2023-04-13T10:07:21.024Z,49.02
2023-04-13T10:09:47.796Z,46.98
2023-04-13T10:12:16.683Z,45.96
2023-04-13T10:14:48.799Z,45.67
2023-04-13T10:17:37.413Z,45.19
2023-04-13T10:20:13.709Z,46.20
2023-04-13T10:22:43.982Z,46.36
2023-04-13T10:25:32.262Z,46.09
2023-04-13T10:28:00.666Z,45.53
2023-04-13T10:30:28.001Z,43.12
2023-04-13T10:33:09.604Z,44.57
2023-04-13T10:35:37.369Z,42.65
2023-04-13T10:38:05.047Z,42.84
2023-04-13T10:40:45.497Z,43.27
2023-04-13T10:43:12.527Z,43.52
2023-04-13T10:45:39.066Z,42.60
2023-04-13T10:48:06.453Z,42.66
2023-04-13T10:50:32.991Z,42.77
2023-04-13T10:53:05.006Z,43.95
2023-04-13T10:55:32.617Z,43.61
2023-04-13T10:58:01.153Z,44.27
2023-04-13T11:00:44.534Z,42.06
2023-04-13T11:03:17.174Z,42.54
2023-04-13T11:05:48.367Z,41.16
2023-04-13T11:08:21.446Z,42.92
2023-04-13T11:10:55.928Z,43.05
2023-04-13T11:13:25.451Z,41.67
2023-04-13T11:15:52.278Z,42.31
2023-04-13T11:18:26.524Z,40.42
2023-04-13T11:20:53.748Z,43.84
2023-04-13T11:23:23.453Z,41.52
2023-04-13T11:25:59.343Z,41.12
2023-04-13T11:28:37.467Z,40.92
2023-04-13T11:31:05.169Z,40.92
2023-04-13T11:33:33.431Z,42.98
2023-04-13T11:36:00.859Z,42.58
2023-04-13T11:38:28.856Z,43.18
2023-04-13T11:41:15.030Z,41.05
2023-04-13T11:43:46.046Z,41.04
2023-04-13T11:46:13.744Z,41.21
2023-04-13T11:48:40.552Z,38.97
2023-04-13T11:51:07.530Z,39.30
2023-04-13T11:53:36.348Z,38.99
2023-04-13T11:56:02.935Z,37.88
2023-04-13T11:58:29.431Z,40.89
2023-04-13T12:00:59.873Z,40.07
2023-04-13T12:03:47.043Z,40.18
2023-04-13T12:06:20.690Z,40.11
2023-04-13T12:08:51.711Z,38.89
2023-04-13T12:11:41.210Z,39.56
2023-04-13T12:14:45.994Z,39.84
2023-04-13T12:17:34.930Z,38.96
2023-04-13T12:20:00.610Z,40.81
2023-04-13T12:22:50.809Z,40.85
2023-04-13T12:25:24.013Z,41.35
2023-04-13T12:27:52.360Z,40.17
2023-04-13T12:30:21.225Z,38.79
2023-04-13T12:32:51.581Z,39.50
2023-04-13T12:35:21.558Z,40.50
2023-04-13T12:37:49.184Z,37.88
2023-04-13T12:40:18.474Z,38.32
2023-04-13T12:42:49.051Z,41.28
2023-04-13T12:45:16.697Z,40.16
2023-04-13T12:47:43.305Z,38.88
2023-04-13T12:50:11.382Z,39.52
2023-04-13T12:52:41.463Z,39.87
2023-04-13T12:55:08.613Z,40.91
2023-04-13T12:57:35.251Z,37.87
2023-04-13T13:00:01.711Z,40.10
2023-04-13T13:02:31.013Z,38.18
2023-04-13T13:04:59.276Z,38.82
2023-04-13T13:07:27.542Z,40.30
2023-04-13T13:09:54.079Z,40.29
2023-04-13T13:12:20.592Z,40.56
2023-04-13T13:14:47.088Z,43.36
2023-04-13T13:17:13.634Z,42.57
2023-04-13T13:19:40.072Z,40.39
2023-04-13T13:22:06.516Z,41.51
2023-04-13T13:24:33.141Z,39.46
2023-04-13T13:29:33.206Z,39.96
2023-04-13T13:32:00.498Z,40.34
2023-04-13T13:34:27.158Z,40.60
2023-04-13T13:36:53.594Z,39.81
2023-04-13T13:39:22.358Z,39.86
2023-04-13T13:41:49.380Z,39.48
2023-04-13T13:44:16.764Z,39.34
2023-04-13T13:46:43.649Z,39.44
2023-04-13T13:49:11.685Z,39.19
2023-04-13T13:51:38.194Z,40.38
2023-04-13T13:54:04.824Z,40.69
2023-04-13T13:56:31.261Z,40.71
2023-04-13T13:58:58.747Z,40.14
2023-04-13T14:01:25.521Z,38.45
2023-04-13T14:03:52.111Z,40.78
2023-04-13T14:06:18.559Z,39.95
2023-04-13T14:08:45.045Z,40.24
2023-04-13T14:11:12.563Z,38.30
2023-04-13T14:13:39.046Z,38.02
2023-04-13T14:16:06.102Z,40.01
2023-04-13T14:18:32.703Z,36.77
2023-04-13T14:20:59.278Z,36.42
2023-04-13T14:23:25.770Z,38.08
2023-04-13T14:25:52.482Z,37.98
2023-04-13T14:28:18.943Z,38.27
2023-04-13T14:30:45.572Z,37.63
2023-04-13T14:33:14.643Z,37.08
2023-04-13T14:35:41.288Z,36.12
2023-04-13T14:38:08.369Z,37.28
2023-04-13T14:40:35.924Z,38.48
2023-04-13T14:43:02.422Z,36.06
2023-04-13T14:45:28.943Z,37.03
2023-04-13T14:47:55.659Z,36.24
2023-04-13T14:50:22.485Z,36.62
2023-04-13T14:52:50.116Z,36.18
2023-04-13T14:55:17.699Z,37.44
2023-04-13T14:57:45.184Z,36.76
2023-04-13T15:00:18.058Z,36.89
2023-04-13T15:02:44.652Z,36.96
2023-04-13T15:05:11.306Z,37.92
2023-04-13T15:07:38.029Z,36.86
2023-04-13T15:10:05.523Z,36.34
2023-04-13T15:12:32.252Z,35.78
2023-04-13T15:14:58.646Z,35.10
2023-04-13T15:17:26.355Z,37.46
2023-04-13T15:19:52.881Z,37.38
2023-04-13T15:22:19.374Z,38.06
2023-04-13T15:24:45.794Z,38.23
2023-04-13T15:27:12.391Z,38.23
2023-04-13T15:29:38.854Z,39.80
2023-04-13T15:32:05.589Z,38.79
2023-04-13T15:34:32.068Z,37.04
2023-04-13T15:36:59.351Z,37.35
2023-04-13T15:39:25.953Z,37.54
2023-04-13T15:41:54.154Z,37.50
2023-04-13T15:44:21.251Z,37.65
2023-04-13T15:46:48.058Z,36.15
2023-04-13T15:49:15.415Z,37.16
2023-04-13T15:51:41.854Z,37.15
2023-04-13T15:54:08.314Z,38.71
2023-04-13T15:56:34.692Z,38.43
2023-04-13T15:59:01.548Z,37.76
2023-04-13T16:01:28.351Z,37.09
2023-04-13T16:03:55.873Z,37.98
2023-04-13T16:06:22.694Z,36.95
2023-04-13T16:08:49.358Z,36.84
2023-04-13T16:11:15.810Z,36.43
2023-04-13T16:13:49.351Z,36.51
2023-04-13T16:16:18.077Z,39.01
2023-04-13T16:18:44.548Z,37.98
2023-04-13T16:21:12.296Z,39.47
2023-04-13T16:23:38.713Z,38.53
2023-04-13T16:26:06.267Z,37.86
2023-04-13T16:28:32.728Z,38.72
2023-04-13T16:30:59.447Z,37.12
2023-04-13T16:33:25.997Z,37.17
2023-04-13T16:35:52.530Z,37.08
2023-04-13T16:38:18.983Z,38.27
2023-04-13T16:40:45.629Z,37.57
2023-04-13T16:43:12.512Z,37.09
2023-04-13T16:45:39.010Z,37.43
2023-04-13T16:48:05.825Z,36.64
2023-04-13T16:50:32.746Z,36.68
2023-04-13T16:52:59.561Z,36.72
2023-04-13T16:55:28.263Z,36.12
2023-04-13T16:57:55.152Z,36.77
2023-04-13T17:00:22.021Z,37.16
2023-04-13T17:02:48.777Z,37.08
2023-04-13T17:05:16.134Z,37.39
2023-04-13T17:07:44.101Z,37.44
2023-04-13T17:10:12.845Z,36.05
2023-04-13T17:12:39.610Z,36.10
2023-04-13T17:15:06.706Z,37.05
2023-04-13T17:17:34.631Z,36.24
2023-04-13T17:20:01.736Z,37.54
2023-04-13T17:22:28.317Z,36.68
2023-04-13T17:24:55.773Z,37.91
2023-04-13T17:27:22.384Z,37.43
2023-04-13T17:29:49.739Z,37.13
2023-04-13T17:32:16.569Z,37.72
2023-04-13T17:34:44.566Z,38.04
2023-04-13T17:37:11.711Z,38.66
2023-04-13T17:39:42.071Z,38.28
2023-04-13T17:42:09.399Z,38.49
2023-04-13T17:44:36.021Z,37.87
2023-04-13T17:47:02.513Z,37.94
2023-04-13T17:49:29.136Z,38.62
2023-04-13T17:51:55.658Z,38.90
2023-04-13T17:54:22.110Z,38.38
2023-04-13T17:56:48.535Z,38.60
2023-04-13T17:59:15.823Z,39.55
2023-04-13T18:01:43.467Z,38.71
2023-04-13T18:04:14.580Z,39.42
2023-04-13T18:06:41.460Z,39.33
2023-04-13T18:09:08.872Z,39.64
2023-04-13T18:11:35.861Z,39.12
2023-04-13T18:14:02.933Z,39.26
2023-04-13T18:16:31.665Z,39.52
2023-04-13T18:19:01.738Z,39.86
2023-04-13T18:21:28.677Z,39.95
2023-04-13T18:23:55.458Z,39.70
2023-04-13T18:26:22.633Z,40.08
2023-04-13T18:28:49.272Z,40.04
2023-04-13T18:31:15.762Z,40.09
2023-04-13T18:33:42.271Z,41.06
2023-04-13T18:36:08.743Z,41.50
2023-04-13T18:38:35.387Z,41.53
2023-04-13T18:41:01.927Z,42.09
2023-04-13T18:43:28.364Z,42.05
2023-04-13T18:45:55.078Z,42.34
2023-04-13T18:48:21.507Z,43.17
2023-04-13T18:50:48.383Z,42.96
2023-04-13T18:53:14.825Z,43.19
2023-04-13T18:55:41.244Z,43.85
2023-04-13T18:58:07.767Z,43.44
2023-04-13T19:00:34.245Z,43.73
2023-04-13T19:03:01.165Z,43.15
2023-04-13T19:05:27.907Z,43.69
2023-04-13T19:07:59.144Z,43.38
2023-04-13T19:10:26.441Z,43.68
2023-04-13T19:12:52.903Z,44.17
2023-04-13T19:15:19.787Z,45.52
2023-04-13T19:17:47.299Z,44.78
2023-04-13T19:20:14.443Z,45.13
2023-04-13T19:22:41.012Z,45.06
2023-04-13T19:25:13.970Z,44.62
2023-04-13T19:27:50.172Z,45.30
2023-04-13T19:30:18.254Z,44.98
2023-04-13T19:32:46.836Z,44.75
2023-04-13T19:35:13.899Z,46.07
2023-04-13T19:37:41.082Z,45.57
2023-04-13T19:40:13.536Z,44.45
2023-04-13T19:42:41.645Z,44.81
2023-04-13T19:45:09.546Z,48.55
2023-04-13T19:47:40.459Z,46.82
2023-04-13T19:50:08.996Z,47.43
2023-04-13T19:52:35.841Z,46.36
2023-04-13T19:55:02.267Z,45.08
2023-04-13T19:57:29.232Z,45.11
2023-04-13T19:59:55.855Z,45.44
2023-04-13T20:02:22.536Z,45.15
2023-04-13T20:04:50.006Z,44.91
2023-04-13T20:07:17.908Z,45.03
2023-04-13T20:09:44.861Z,46.76
2023-04-13T20:12:12.096Z,46.40
2023-04-13T20:14:42.067Z,45.76
2023-04-13T20:17:09.235Z,46.26
2023-04-13T20:19:36.418Z,45.89
2023-04-13T20:22:04.407Z,45.40
2023-04-13T20:24:31.530Z,45.39
2023-04-13T20:26:58.691Z,45.90
2023-04-13T20:29:26.968Z,45.64
2023-04-13T20:31:54.116Z,45.67
2023-04-13T20:34:20.949Z,45.19
2023-04-13T20:36:47.492Z,46.03
2023-04-13T20:39:14.033Z,46.98
2023-04-13T20:41:40.514Z,46.97
2023-04-13T20:44:09.891Z,47.05
2023-04-13T20:46:37.517Z,46.52
2023-04-13T20:49:04.954Z,48.17
2023-04-13T20:51:33.391Z,48.96
2023-04-13T20:54:01.642Z,49.05
2023-04-13T20:56:28.387Z,48.07
2023-04-13T20:58:57.164Z,47.71
2023-04-13T21:01:26.861Z,47.89
2023-04-13T21:03:53.674Z,49.73
2023-04-13T21:06:22.501Z,47.34
2023-04-13T21:08:48.945Z,47.68
2023-04-13T21:11:15.369Z,46.87
2023-04-13T21:13:41.863Z,48.54
2023-04-13T21:16:08.985Z,48.95
2023-04-13T21:18:36.672Z,47.51
2023-04-13T21:21:05.200Z,48.83
2023-04-13T21:23:31.646Z,48.70
2023-04-13T21:25:58.015Z,50.64
2023-04-13T21:28:24.452Z,49.09
2023-04-13T21:30:50.862Z,49.30
2023-04-13T21:33:17.319Z,51.07
2023-04-13T21:35:43.737Z,51.03
2023-04-13T21:38:10.220Z,49.32
2023-04-13T21:40:36.717Z,49.93
2023-04-13T21:43:03.321Z,51.90
2023-04-13T21:45:29.753Z,50.12
2023-04-13T21:47:56.349Z,50.09
2023-04-13T21:50:22.971Z,51.20
2023-04-13T21:52:49.616Z,54.35
2023-04-13T21:55:19.535Z,53.19
2023-04-13T21:57:46.965Z,51.96
2023-04-13T22:00:14.825Z,52.00
2023-04-13T22:02:41.736Z,51.43
2023-04-13T22:05:09.917Z,51.88
2023-04-13T22:07:42.496Z,51.83
2023-04-13T22:10:10.817Z,51.15
2023-04-13T22:12:37.333Z,51.70
2023-04-13T22:15:04.403Z,51.44
2023-04-13T22:17:31.034Z,53.03
2023-04-13T22:19:57.586Z,54.08
2023-04-13T22:22:24.007Z,52.79
2023-04-13T22:24:52.399Z,53.13
2023-04-13T22:27:18.909Z,52.69
2023-04-13T22:29:45.584Z,52.60
2023-04-13T22:32:11.983Z,52.78
2023-04-13T22:34:38.499Z,52.43
2023-04-13T22:37:06.866Z,52.64
2023-04-13T22:39:33.308Z,53.17
2023-04-13T22:41:59.919Z,53.31
2023-04-13T22:44:32.312Z,52.97
2023-04-13T22:46:58.822Z,53.02
2023-04-13T22:49:25.434Z,54.17
2023-04-13T22:51:51.817Z,53.46
2023-04-13T22:54:18.279Z,53.31
2023-04-13T22:56:44.677Z,54.02
2023-04-13T22:59:11.079Z,53.93
2023-04-13T23:01:37.610Z,54.08
2023-04-13T23:04:04.762Z,53.85
2023-04-13T23:06:31.357Z,53.91
2023-04-13T23:08:57.922Z,53.88
2023-04-13T23:11:24.445Z,54.07
2023-04-13T23:13:54.336Z,55.92
2023-04-13T23:16:20.904Z,55.15
2023-04-13T23:18:47.425Z,54.99
2023-04-13T23:21:13.842Z,54.80
2023-04-13T23:23:40.500Z,54.78
2023-04-13T23:26:07.130Z,54.73
2023-04-13T23:28:33.546Z,56.32
2023-04-13T23:31:06.875Z,58.00
2023-04-13T23:33:36.330Z,58.02
2023-04-13T23:36:03.531Z,56.45
2023-04-13T23:38:30.775Z,56.78
2023-04-13T23:40:57.865Z,56.54
2023-04-13T23:43:24.686Z,57.11
2023-04-13T23:45:52.196Z,56.39
2023-04-13T23:48:19.970Z,56.88
2023-04-13T23:50:47.200Z,58.19
2023-04-13T23:53:14.006Z,57.71
2023-04-13T23:55:40.926Z,56.65
2023-04-13T23:58:07.369Z,60.58
